sensor_id;sensor_type;location;lat;lon;timestamp;P1;durP1;ratioP1;P2;durP2;ratioP2
52708;SDS011;38606;52.986;6.980;2022-09-09T00:06:30;14.90;;;10.75;;
52708;SDS011;38606;52.986;6.980;2022-09-09T00:14:11;16.30;;;10.90;;
52708;SDS011;38606;52.986;6.980;2022-09-09T00:19:18;15.27;;;9.82;;
52708;SDS011;38606;52.986;6.980;2022-09-09T00:27:06;18.58;;;11.05;;
52708;SDS011;38606;52.986;6.980;2022-09-09T00:29:41;17.13;;;10.75;;
52708;SDS011;38606;52.986;6.980;2022-09-09T00:32:15;16.45;;;10.80;;
52708;SDS011;38606;52.986;6.980;2022-09-09T00:37:13;14.68;;;10.77;;
52708;SDS011;38606;52.986;6.980;2022-09-09T00:39:44;15.85;;;10.65;;
52708;SDS011;38606;52.986;6.980;2022-09-09T00:44:46;16.08;;;11.70;;
52708;SDS011;38606;52.986;6.980;2022-09-09T00:50:14;17.95;;;11.35;;
52708;SDS011;38606;52.986;6.980;2022-09-09T00:58:05;16.13;;;10.95;;
52708;SDS011;38606;52.986;6.980;2022-09-09T01:03:29;15.48;;;9.93;;
52708;SDS011;38606;52.986;6.980;2022-09-09T01:14:32;19.63;;;10.13;;
52708;SDS011;38606;52.986;6.980;2022-09-09T01:17:35;14.60;;;9.77;;
52708;SDS011;38606;52.986;6.980;2022-09-09T01:20:25;16.02;;;9.48;;
52708;SDS011;38606;52.986;6.980;2022-09-09T01:23:10;14.82;;;9.50;;
52708;SDS011;38606;52.986;6.980;2022-09-09T01:26:12;15.48;;;9.80;;
52708;SDS011;38606;52.986;6.980;2022-09-09T01:28:39;14.20;;;9.55;;
52708;SDS011;38606;52.986;6.980;2022-09-09T01:31:07;17.33;;;8.85;;
52708;SDS011;38606;52.986;6.980;2022-09-09T01:33:36;15.85;;;9.63;;
52708;SDS011;38606;52.986;6.980;2022-09-09T01:36:38;15.35;;;9.10;;
52708;SDS011;38606;52.986;6.980;2022-09-09T01:38:58;18.27;;;9.20;;
52708;SDS011;38606;52.986;6.980;2022-09-09T01:41:24;14.93;;;8.55;;
52708;SDS011;38606;52.986;6.980;2022-09-09T01:43:50;18.95;;;9.70;;
52708;SDS011;38606;52.986;6.980;2022-09-09T01:46:17;17.02;;;9.75;;
52708;SDS011;38606;52.986;6.980;2022-09-09T01:48:46;13.05;;;9.25;;
52708;SDS011;38606;52.986;6.980;2022-09-09T01:51:13;12.95;;;8.98;;
52708;SDS011;38606;52.986;6.980;2022-09-09T01:53:39;16.15;;;9.65;;
52708;SDS011;38606;52.986;6.980;2022-09-09T01:56:11;13.10;;;9.07;;
52708;SDS011;38606;52.986;6.980;2022-09-09T02:01:17;14.30;;;8.15;;
52708;SDS011;38606;52.986;6.980;2022-09-09T02:03:53;12.88;;;8.98;;
52708;SDS011;38606;52.986;6.980;2022-09-09T02:08:53;16.73;;;9.48;;
52708;SDS011;38606;52.986;6.980;2022-09-09T02:11:22;12.50;;;8.60;;
52708;SDS011;38606;52.986;6.980;2022-09-09T02:13:51;14.40;;;8.15;;
52708;SDS011;38606;52.986;6.980;2022-09-09T02:19:06;15.13;;;7.85;;
52708;SDS011;38606;52.986;6.980;2022-09-09T02:21:34;12.32;;;6.80;;
52708;SDS011;38606;52.986;6.980;2022-09-09T02:24:02;11.20;;;5.88;;
52708;SDS011;38606;52.986;6.980;2022-09-09T02:26:31;9.60;;;6.45;;
52708;SDS011;38606;52.986;6.980;2022-09-09T02:29:01;13.63;;;6.82;;
52708;SDS011;38606;52.986;6.980;2022-09-09T02:31:29;9.98;;;5.80;;
52708;SDS011;38606;52.986;6.980;2022-09-09T02:33:58;11.82;;;6.03;;
52708;SDS011;38606;52.986;6.980;2022-09-09T02:36:27;12.52;;;5.47;;
52708;SDS011;38606;52.986;6.980;2022-09-09T02:38:58;11.48;;;6.00;;
52708;SDS011;38606;52.986;6.980;2022-09-09T02:41:35;10.32;;;5.53;;
52708;SDS011;38606;52.986;6.980;2022-09-09T02:44:11;8.90;;;5.10;;
52708;SDS011;38606;52.986;6.980;2022-09-09T02:56:46;12.32;;;5.88;;
52708;SDS011;38606;52.986;6.980;2022-09-09T03:01:43;10.43;;;5.85;;
52708;SDS011;38606;52.986;6.980;2022-09-09T03:04:10;11.23;;;6.28;;
52708;SDS011;38606;52.986;6.980;2022-09-09T03:06:35;8.70;;;6.22;;
52708;SDS011;38606;52.986;6.980;2022-09-09T03:09:01;10.60;;;6.75;;
52708;SDS011;38606;52.986;6.980;2022-09-09T03:11:27;15.15;;;7.72;;
52708;SDS011;38606;52.986;6.980;2022-09-09T03:13:53;12.25;;;7.38;;
52708;SDS011;38606;52.986;6.980;2022-09-09T03:16:21;14.13;;;7.65;;
52708;SDS011;38606;52.986;6.980;2022-09-09T03:18:48;11.13;;;8.45;;
52708;SDS011;38606;52.986;6.980;2022-09-09T03:21:14;12.32;;;7.90;;
52708;SDS011;38606;52.986;6.980;2022-09-09T03:23:39;13.18;;;8.90;;
52708;SDS011;38606;52.986;6.980;2022-09-09T03:26:05;12.57;;;8.80;;
52708;SDS011;38606;52.986;6.980;2022-09-09T03:28:31;12.43;;;8.45;;
52708;SDS011;38606;52.986;6.980;2022-09-09T03:30:59;13.35;;;8.65;;
52708;SDS011;38606;52.986;6.980;2022-09-09T03:33:25;13.07;;;9.20;;
52708;SDS011;38606;52.986;6.980;2022-09-09T03:35:51;16.33;;;9.00;;
52708;SDS011;38606;52.986;6.980;2022-09-09T03:38:17;11.60;;;8.57;;
52708;SDS011;38606;52.986;6.980;2022-09-09T03:40:49;14.90;;;9.57;;
52708;SDS011;38606;52.986;6.980;2022-09-09T03:43:25;15.25;;;9.65;;
52708;SDS011;38606;52.986;6.980;2022-09-09T03:45:52;17.35;;;9.05;;
52708;SDS011;38606;52.986;6.980;2022-09-09T03:48:22;12.70;;;9.38;;
52708;SDS011;38606;52.986;6.980;2022-09-09T03:50:48;12.32;;;9.43;;
52708;SDS011;38606;52.986;6.980;2022-09-09T03:53:16;14.50;;;9.73;;
52708;SDS011;38606;52.986;6.980;2022-09-09T03:55:48;16.33;;;9.80;;
52708;SDS011;38606;52.986;6.980;2022-09-09T03:58:15;9.63;;;8.40;;
52708;SDS011;38606;52.986;6.980;2022-09-09T04:00:44;15.63;;;8.55;;
52708;SDS011;38606;52.986;6.980;2022-09-09T04:03:22;15.23;;;8.85;;
52708;SDS011;38606;52.986;6.980;2022-09-09T04:05:50;12.10;;;8.77;;
52708;SDS011;38606;52.986;6.980;2022-09-09T04:08:17;12.45;;;8.13;;
52708;SDS011;38606;52.986;6.980;2022-09-09T04:10:47;12.77;;;7.72;;
52708;SDS011;38606;52.986;6.980;2022-09-09T04:13:14;11.23;;;6.75;;
52708;SDS011;38606;52.986;6.980;2022-09-09T04:15:43;12.65;;;6.43;;
52708;SDS011;38606;52.986;6.980;2022-09-09T04:18:10;8.02;;;5.53;;
52708;SDS011;38606;52.986;6.980;2022-09-09T04:20:37;8.60;;;5.38;;
52708;SDS011;38606;52.986;6.980;2022-09-09T04:23:03;6.15;;;5.15;;
52708;SDS011;38606;52.986;6.980;2022-09-09T04:25:30;8.27;;;4.50;;
52708;SDS011;38606;52.986;6.980;2022-09-09T04:27:56;7.32;;;4.40;;
52708;SDS011;38606;52.986;6.980;2022-09-09T04:30:23;5.13;;;3.85;;
52708;SDS011;38606;52.986;6.980;2022-09-09T04:32:50;5.35;;;3.30;;
52708;SDS011;38606;52.986;6.980;2022-09-09T04:35:16;6.05;;;3.33;;
52708;SDS011;38606;52.986;6.980;2022-09-09T04:37:41;8.02;;;3.92;;
52708;SDS011;38606;52.986;6.980;2022-09-09T04:40:07;6.93;;;3.35;;
52708;SDS011;38606;52.986;6.980;2022-09-09T04:42:38;7.95;;;3.80;;
52708;SDS011;38606;52.986;6.980;2022-09-09T04:45:05;7.07;;;3.83;;
52708;SDS011;38606;52.986;6.980;2022-09-09T04:47:36;9.00;;;4.32;;
52708;SDS011;38606;52.986;6.980;2022-09-09T04:50:02;7.05;;;4.30;;
52708;SDS011;38606;52.986;6.980;2022-09-09T04:52:28;7.03;;;4.50;;
52708;SDS011;38606;52.986;6.980;2022-09-09T04:54:53;7.60;;;5.35;;
52708;SDS011;38606;52.986;6.980;2022-09-09T04:57:19;9.52;;;5.85;;
52708;SDS011;38606;52.986;6.980;2022-09-09T04:59:45;9.80;;;6.05;;
52708;SDS011;38606;52.986;6.980;2022-09-09T05:02:11;9.43;;;6.38;;
52708;SDS011;38606;52.986;6.980;2022-09-09T05:04:37;12.00;;;7.28;;
52708;SDS011;38606;52.986;6.980;2022-09-09T05:07:02;10.68;;;6.10;;
52708;SDS011;38606;52.986;6.980;2022-09-09T05:09:28;9.93;;;6.53;;
52708;SDS011;38606;52.986;6.980;2022-09-09T05:11:55;8.98;;;6.28;;
52708;SDS011;38606;52.986;6.980;2022-09-09T05:14:21;10.43;;;7.18;;
52708;SDS011;38606;52.986;6.980;2022-09-09T05:16:47;15.20;;;7.38;;
52708;SDS011;38606;52.986;6.980;2022-09-09T05:19:15;10.63;;;6.68;;
52708;SDS011;38606;52.986;6.980;2022-09-09T05:21:44;9.93;;;7.15;;
52708;SDS011;38606;52.986;6.980;2022-09-09T05:24:10;7.38;;;6.43;;
52708;SDS011;38606;52.986;6.980;2022-09-09T05:26:36;9.30;;;6.75;;
52708;SDS011;38606;52.986;6.980;2022-09-09T05:29:01;9.68;;;6.60;;
52708;SDS011;38606;52.986;6.980;2022-09-09T05:31:29;9.68;;;7.18;;
52708;SDS011;38606;52.986;6.980;2022-09-09T05:33:55;11.18;;;6.88;;
52708;SDS011;38606;52.986;6.980;2022-09-09T05:36:21;11.02;;;6.28;;
52708;SDS011;38606;52.986;6.980;2022-09-09T05:38:48;9.70;;;7.13;;
52708;SDS011;38606;52.986;6.980;2022-09-09T05:41:15;11.13;;;7.20;;
52708;SDS011;38606;52.986;6.980;2022-09-09T05:43:41;8.43;;;6.38;;
52708;SDS011;38606;52.986;6.980;2022-09-09T05:46:10;10.18;;;7.20;;
52708;SDS011;38606;52.986;6.980;2022-09-09T05:48:37;11.85;;;6.93;;
52708;SDS011;38606;52.986;6.980;2022-09-09T05:51:11;11.52;;;6.68;;
52708;SDS011;38606;52.986;6.980;2022-09-09T05:53:40;10.50;;;6.60;;
52708;SDS011;38606;52.986;6.980;2022-09-09T05:56:08;8.52;;;6.55;;
52708;SDS011;38606;52.986;6.980;2022-09-09T05:58:39;8.35;;;6.82;;
52708;SDS011;38606;52.986;6.980;2022-09-09T06:03:36;9.35;;;7.07;;
52708;SDS011;38606;52.986;6.980;2022-09-09T06:06:04;9.70;;;6.95;;
52708;SDS011;38606;52.986;6.980;2022-09-09T06:08:32;9.65;;;7.00;;
52708;SDS011;38606;52.986;6.980;2022-09-09T06:11:03;11.20;;;7.22;;
52708;SDS011;38606;52.986;6.980;2022-09-09T06:13:30;12.95;;;7.47;;
52708;SDS011;38606;52.986;6.980;2022-09-09T06:15:57;10.90;;;6.63;;
52708;SDS011;38606;52.986;6.980;2022-09-09T06:18:23;8.80;;;6.70;;
52708;SDS011;38606;52.986;6.980;2022-09-09T06:20:54;12.05;;;7.25;;
52708;SDS011;38606;52.986;6.980;2022-09-09T06:23:21;7.47;;;6.18;;
52708;SDS011;38606;52.986;6.980;2022-09-09T06:25:46;9.18;;;6.80;;
52708;SDS011;38606;52.986;6.980;2022-09-09T06:28:14;9.00;;;5.97;;
52708;SDS011;38606;52.986;6.980;2022-09-09T06:30:40;8.57;;;5.97;;
52708;SDS011;38606;52.986;6.980;2022-09-09T06:33:06;7.93;;;5.93;;
52708;SDS011;38606;52.986;6.980;2022-09-09T06:35:32;8.23;;;6.80;;
52708;SDS011;38606;52.986;6.980;2022-09-09T06:37:57;9.02;;;6.57;;
52708;SDS011;38606;52.986;6.980;2022-09-09T06:40:24;8.25;;;5.80;;
52708;SDS011;38606;52.986;6.980;2022-09-09T06:42:50;7.88;;;5.97;;
52708;SDS011;38606;52.986;6.980;2022-09-09T06:45:16;6.78;;;5.53;;
52708;SDS011;38606;52.986;6.980;2022-09-09T06:47:42;8.07;;;6.13;;
52708;SDS011;38606;52.986;6.980;2022-09-09T06:50:09;10.88;;;6.28;;
52708;SDS011;38606;52.986;6.980;2022-09-09T06:52:36;7.53;;;6.00;;
52708;SDS011;38606;52.986;6.980;2022-09-09T06:55:02;6.35;;;5.40;;
52708;SDS011;38606;52.986;6.980;2022-09-09T06:57:28;7.03;;;5.70;;
52708;SDS011;38606;52.986;6.980;2022-09-09T06:59:54;7.13;;;5.30;;
52708;SDS011;38606;52.986;6.980;2022-09-09T07:02:20;6.10;;;5.43;;
52708;SDS011;38606;52.986;6.980;2022-09-09T07:04:46;10.30;;;5.53;;
52708;SDS011;38606;52.986;6.980;2022-09-09T07:07:12;9.30;;;4.95;;
52708;SDS011;38606;52.986;6.980;2022-09-09T07:09:38;8.65;;;5.88;;
52708;SDS011;38606;52.986;6.980;2022-09-09T07:12:05;8.27;;;5.30;;
52708;SDS011;38606;52.986;6.980;2022-09-09T07:14:31;9.40;;;4.93;;
52708;SDS011;38606;52.986;6.980;2022-09-09T07:16:59;7.10;;;4.68;;
52708;SDS011;38606;52.986;6.980;2022-09-09T07:19:25;7.30;;;5.35;;
52708;SDS011;38606;52.986;6.980;2022-09-09T07:21:51;5.78;;;4.60;;
52708;SDS011;38606;52.986;6.980;2022-09-09T07:24:17;8.70;;;5.60;;
52708;SDS011;38606;52.986;6.980;2022-09-09T07:26:43;8.70;;;4.40;;
52708;SDS011;38606;52.986;6.980;2022-09-09T07:29:09;6.90;;;5.40;;
52708;SDS011;38606;52.986;6.980;2022-09-09T07:31:35;7.25;;;5.30;;
52708;SDS011;38606;52.986;6.980;2022-09-09T07:34:03;6.95;;;5.00;;
52708;SDS011;38606;52.986;6.980;2022-09-09T07:36:31;7.03;;;4.68;;
52708;SDS011;38606;52.986;6.980;2022-09-09T07:38:59;8.95;;;5.20;;
52708;SDS011;38606;52.986;6.980;2022-09-09T07:41:48;6.72;;;4.88;;
52708;SDS011;38606;52.986;6.980;2022-09-09T07:44:18;11.10;;;5.20;;
52708;SDS011;38606;52.986;6.980;2022-09-09T07:46:48;8.50;;;5.75;;
52708;SDS011;38606;52.986;6.980;2022-09-09T07:49:14;8.82;;;4.90;;
52708;SDS011;38606;52.986;6.980;2022-09-09T07:51:42;8.63;;;5.20;;
52708;SDS011;38606;52.986;6.980;2022-09-09T07:54:10;8.05;;;5.13;;
52708;SDS011;38606;52.986;6.980;2022-09-09T07:56:38;7.57;;;4.82;;
52708;SDS011;38606;52.986;6.980;2022-09-09T07:59:04;8.43;;;4.78;;
52708;SDS011;38606;52.986;6.980;2022-09-09T08:04:03;7.68;;;4.50;;
52708;SDS011;38606;52.986;6.980;2022-09-09T08:06:32;6.70;;;4.25;;
52708;SDS011;38606;52.986;6.980;2022-09-09T08:09:00;6.78;;;4.20;;
52708;SDS011;38606;52.986;6.980;2022-09-09T08:11:26;7.60;;;4.22;;
52708;SDS011;38606;52.986;6.980;2022-09-09T08:13:54;5.75;;;4.00;;
52708;SDS011;38606;52.986;6.980;2022-09-09T08:16:21;7.35;;;4.13;;
52708;SDS011;38606;52.986;6.980;2022-09-09T08:18:49;7.13;;;4.18;;
52708;SDS011;38606;52.986;6.980;2022-09-09T08:21:17;8.20;;;4.28;;
52708;SDS011;38606;52.986;6.980;2022-09-09T08:23:46;6.80;;;3.92;;
52708;SDS011;38606;52.986;6.980;2022-09-09T08:26:17;7.45;;;3.58;;
52708;SDS011;38606;52.986;6.980;2022-09-09T08:28:51;5.22;;;3.80;;
52708;SDS011;38606;52.986;6.980;2022-09-09T08:31:19;6.25;;;3.90;;
52708;SDS011;38606;52.986;6.980;2022-09-09T08:33:46;9.30;;;3.47;;
52708;SDS011;38606;52.986;6.980;2022-09-09T08:36:13;8.30;;;3.83;;
52708;SDS011;38606;52.986;6.980;2022-09-09T08:38:41;6.55;;;3.90;;
52708;SDS011;38606;52.986;6.980;2022-09-09T08:43:50;6.30;;;4.10;;
52708;SDS011;38606;52.986;6.980;2022-09-09T08:55:12;7.80;;;3.80;;
52708;SDS011;38606;52.986;6.980;2022-09-09T08:57:53;8.43;;;4.22;;
52708;SDS011;38606;52.986;6.980;2022-09-09T09:00:20;6.55;;;3.85;;
52708;SDS011;38606;52.986;6.980;2022-09-09T09:03:03;8.07;;;3.83;;
52708;SDS011;38606;52.986;6.980;2022-09-09T09:08:44;9.98;;;3.60;;
52708;SDS011;38606;52.986;6.980;2022-09-09T09:11:16;5.72;;;3.28;;
52708;SDS011;38606;52.986;6.980;2022-09-09T09:13:44;7.15;;;3.40;;
52708;SDS011;38606;52.986;6.980;2022-09-09T09:18:48;6.32;;;3.50;;
52708;SDS011;38606;52.986;6.980;2022-09-09T09:21:18;6.82;;;3.33;;
52708;SDS011;38606;52.986;6.980;2022-09-09T09:23:58;6.97;;;3.28;;
52708;SDS011;38606;52.986;6.980;2022-09-09T09:26:32;6.90;;;3.67;;
52708;SDS011;38606;52.986;6.980;2022-09-09T09:29:00;8.50;;;3.22;;
52708;SDS011;38606;52.986;6.980;2022-09-09T09:31:38;6.93;;;2.88;;
52708;SDS011;38606;52.986;6.980;2022-09-09T09:34:04;7.63;;;3.08;;
52708;SDS011;38606;52.986;6.980;2022-09-09T09:36:33;6.55;;;3.08;;
52708;SDS011;38606;52.986;6.980;2022-09-09T09:39:04;8.52;;;3.40;;
52708;SDS011;38606;52.986;6.980;2022-09-09T09:44:01;10.10;;;2.83;;
52708;SDS011;38606;52.986;6.980;2022-09-09T09:46:28;7.30;;;2.70;;
52708;SDS011;38606;52.986;6.980;2022-09-09T09:49:01;6.10;;;1.90;;
52708;SDS011;38606;52.986;6.980;2022-09-09T09:51:30;7.45;;;2.10;;
52708;SDS011;38606;52.986;6.980;2022-09-09T09:56:41;6.75;;;2.00;;
52708;SDS011;38606;52.986;6.980;2022-09-09T09:59:21;10.27;;;1.92;;
52708;SDS011;38606;52.986;6.980;2022-09-09T10:01:53;6.82;;;2.28;;
52708;SDS011;38606;52.986;6.980;2022-09-09T10:04:20;9.60;;;2.10;;
52708;SDS011;38606;52.986;6.980;2022-09-09T10:06:48;10.77;;;2.20;;
52708;SDS011;38606;52.986;6.980;2022-09-09T10:09:25;5.55;;;1.85;;
52708;SDS011;38606;52.986;6.980;2022-09-09T10:12:01;9.47;;;2.00;;
52708;SDS011;38606;52.986;6.980;2022-09-09T10:14:30;9.57;;;3.10;;
52708;SDS011;38606;52.986;6.980;2022-09-09T10:22:35;6.78;;;1.88;;
52708;SDS011;38606;52.986;6.980;2022-09-09T10:33:16;10.00;;;1.80;;
52708;SDS011;38606;52.986;6.980;2022-09-09T10:38:25;7.07;;;1.90;;
52708;SDS011;38606;52.986;6.980;2022-09-09T10:41:00;10.18;;;1.70;;
52708;SDS011;38606;52.986;6.980;2022-09-09T10:55:45;7.45;;;1.77;;
52708;SDS011;38606;52.986;6.980;2022-09-09T10:58:23;7.75;;;1.50;;
52708;SDS011;38606;52.986;6.980;2022-09-09T11:00:56;9.90;;;2.47;;
52708;SDS011;38606;52.986;6.980;2022-09-09T11:03:26;5.70;;;1.90;;
52708;SDS011;38606;52.986;6.980;2022-09-09T11:06:05;11.77;;;1.83;;
52708;SDS011;38606;52.986;6.980;2022-09-09T11:08:35;8.25;;;1.88;;
52708;SDS011;38606;52.986;6.980;2022-09-09T11:11:06;8.95;;;1.88;;
52708;SDS011;38606;52.986;6.980;2022-09-09T11:18:53;7.88;;;1.73;;
52708;SDS011;38606;52.986;6.980;2022-09-09T11:21:46;6.22;;;1.60;;
52708;SDS011;38606;52.986;6.980;2022-09-09T11:27:02;5.95;;;1.30;;
52708;SDS011;38606;52.986;6.980;2022-09-09T11:35:38;6.45;;;1.60;;
52708;SDS011;38606;52.986;6.980;2022-09-09T11:40:46;14.07;;;1.60;;
52708;SDS011;38606;52.986;6.980;2022-09-09T11:46:02;6.63;;;1.15;;
52708;SDS011;38606;52.986;6.980;2022-09-09T11:48:38;4.90;;;1.30;;
52708;SDS011;38606;52.986;6.980;2022-09-09T11:53:52;5.72;;;0.90;;
52708;SDS011;38606;52.986;6.980;2022-09-09T11:56:43;3.97;;;1.17;;
52708;SDS011;38606;52.986;6.980;2022-09-09T11:59:20;4.03;;;1.10;;
52708;SDS011;38606;52.986;6.980;2022-09-09T12:01:49;10.77;;;1.58;;
52708;SDS011;38606;52.986;6.980;2022-09-09T12:04:33;8.68;;;1.45;;
52708;SDS011;38606;52.986;6.980;2022-09-09T12:12:37;5.60;;;1.45;;
52708;SDS011;38606;52.986;6.980;2022-09-09T12:17:36;5.28;;;1.20;;
52708;SDS011;38606;52.986;6.980;2022-09-09T12:20:18;7.70;;;1.35;;
52708;SDS011;38606;52.986;6.980;2022-09-09T12:28:44;8.60;;;1.50;;
52708;SDS011;38606;52.986;6.980;2022-09-09T12:34:02;6.63;;;1.70;;
52708;SDS011;38606;52.986;6.980;2022-09-09T12:36:51;5.35;;;1.13;;
52708;SDS011;38606;52.986;6.980;2022-09-09T12:39:33;8.20;;;1.35;;
52708;SDS011;38606;52.986;6.980;2022-09-09T12:42:03;6.68;;;0.90;;
52708;SDS011;38606;52.986;6.980;2022-09-09T12:44:30;7.80;;;1.00;;
52708;SDS011;38606;52.986;6.980;2022-09-09T12:46:58;6.53;;;1.23;;
52708;SDS011;38606;52.986;6.980;2022-09-09T12:52:04;5.35;;;1.27;;
52708;SDS011;38606;52.986;6.980;2022-09-09T12:54:34;5.45;;;1.13;;
52708;SDS011;38606;52.986;6.980;2022-09-09T12:57:01;8.73;;;1.25;;
52708;SDS011;38606;52.986;6.980;2022-09-09T12:59:38;3.65;;;1.00;;
52708;SDS011;38606;52.986;6.980;2022-09-09T13:02:23;3.55;;;1.08;;
52708;SDS011;38606;52.986;6.980;2022-09-09T13:04:51;3.15;;;0.90;;
52708;SDS011;38606;52.986;6.980;2022-09-09T13:07:18;3.80;;;0.80;;
52708;SDS011;38606;52.986;6.980;2022-09-09T13:09:45;5.63;;;0.95;;
52708;SDS011;38606;52.986;6.980;2022-09-09T13:12:19;5.50;;;1.08;;
52708;SDS011;38606;52.986;6.980;2022-09-09T13:14:48;6.65;;;0.90;;
52708;SDS011;38606;52.986;6.980;2022-09-09T13:17:19;5.32;;;1.00;;
52708;SDS011;38606;52.986;6.980;2022-09-09T13:19:47;6.03;;;1.38;;
52708;SDS011;38606;52.986;6.980;2022-09-09T13:24:58;5.43;;;1.10;;
52708;SDS011;38606;52.986;6.980;2022-09-09T13:27:35;10.40;;;1.42;;
52708;SDS011;38606;52.986;6.980;2022-09-09T13:30:25;11.13;;;1.58;;
52708;SDS011;38606;52.986;6.980;2022-09-09T13:33:04;9.02;;;0.68;;
52708;SDS011;38606;52.986;6.980;2022-09-09T13:35:54;4.60;;;0.30;;
52708;SDS011;38606;52.986;6.980;2022-09-09T13:38:20;1.25;;;0.40;;
52708;SDS011;38606;52.986;6.980;2022-09-09T13:41:00;5.38;;;0.52;;
52708;SDS011;38606;52.986;6.980;2022-09-09T13:43:38;4.10;;;0.50;;
52708;SDS011;38606;52.986;6.980;2022-09-09T13:46:25;1.90;;;0.47;;
52708;SDS011;38606;52.986;6.980;2022-09-09T13:48:57;5.95;;;0.70;;
52708;SDS011;38606;52.986;6.980;2022-09-09T13:51:47;2.75;;;0.70;;
52708;SDS011;38606;52.986;6.980;2022-09-09T13:54:16;10.00;;;1.17;;
52708;SDS011;38606;52.986;6.980;2022-09-09T13:56:43;5.10;;;0.85;;
52708;SDS011;38606;52.986;6.980;2022-09-09T13:59:13;2.35;;;1.08;;
52708;SDS011;38606;52.986;6.980;2022-09-09T14:01:41;4.85;;;1.20;;
52708;SDS011;38606;52.986;6.980;2022-09-09T14:04:07;7.45;;;1.13;;
52708;SDS011;38606;52.986;6.980;2022-09-09T14:06:37;6.93;;;1.33;;
52708;SDS011;38606;52.986;6.980;2022-09-09T14:09:09;5.43;;;1.30;;
52708;SDS011;38606;52.986;6.980;2022-09-09T14:11:37;4.80;;;1.10;;
52708;SDS011;38606;52.986;6.980;2022-09-09T14:14:03;5.22;;;0.95;;
52708;SDS011;38606;52.986;6.980;2022-09-09T14:16:30;2.88;;;0.85;;
52708;SDS011;38606;52.986;6.980;2022-09-09T14:18:56;4.93;;;1.58;;
52708;SDS011;38606;52.986;6.980;2022-09-09T14:21:22;6.25;;;1.50;;
52708;SDS011;38606;52.986;6.980;2022-09-09T14:23:48;5.80;;;1.20;;
52708;SDS011;38606;52.986;6.980;2022-09-09T14:26:14;2.97;;;1.10;;
52708;SDS011;38606;52.986;6.980;2022-09-09T14:28:40;5.32;;;1.50;;
52708;SDS011;38606;52.986;6.980;2022-09-09T14:31:06;26.92;;;4.90;;
52708;SDS011;38606;52.986;6.980;2022-09-09T14:33:32;5.10;;;1.17;;
52708;SDS011;38606;52.986;6.980;2022-09-09T14:35:58;4.47;;;1.20;;
52708;SDS011;38606;52.986;6.980;2022-09-09T14:38:28;5.10;;;1.27;;
52708;SDS011;38606;52.986;6.980;2022-09-09T14:40:55;9.52;;;1.40;;
52708;SDS011;38606;52.986;6.980;2022-09-09T14:43:21;5.20;;;1.25;;
52708;SDS011;38606;52.986;6.980;2022-09-09T14:45:47;4.57;;;1.50;;
52708;SDS011;38606;52.986;6.980;2022-09-09T14:48:16;4.78;;;1.20;;
52708;SDS011;38606;52.986;6.980;2022-09-09T14:50:42;4.93;;;1.30;;
52708;SDS011;38606;52.986;6.980;2022-09-09T14:53:08;2.13;;;0.80;;
52708;SDS011;38606;52.986;6.980;2022-09-09T14:55:35;2.90;;;0.88;;
52708;SDS011;38606;52.986;6.980;2022-09-09T14:58:01;1.52;;;0.77;;
52708;SDS011;38606;52.986;6.980;2022-09-09T15:00:27;3.08;;;0.80;;
52708;SDS011;38606;52.986;6.980;2022-09-09T15:02:53;4.38;;;0.60;;
52708;SDS011;38606;52.986;6.980;2022-09-09T15:05:19;0.93;;;0.40;;
52708;SDS011;38606;52.986;6.980;2022-09-09T15:07:45;0.70;;;0.30;;
52708;SDS011;38606;52.986;6.980;2022-09-09T15:10:13;0.52;;;0.30;;
52708;SDS011;38606;52.986;6.980;2022-09-09T15:12:38;0.90;;;0.38;;
52708;SDS011;38606;52.986;6.980;2022-09-09T15:15:04;1.48;;;0.40;;
52708;SDS011;38606;52.986;6.980;2022-09-09T15:17:31;1.95;;;0.45;;
52708;SDS011;38606;52.986;6.980;2022-09-09T15:19:56;1.25;;;0.40;;
52708;SDS011;38606;52.986;6.980;2022-09-09T15:22:22;1.13;;;0.28;;
52708;SDS011;38606;52.986;6.980;2022-09-09T15:24:49;0.73;;;0.45;;
52708;SDS011;38606;52.986;6.980;2022-09-09T15:27:15;1.77;;;0.30;;
52708;SDS011;38606;52.986;6.980;2022-09-09T15:29:41;1.75;;;0.52;;
52708;SDS011;38606;52.986;6.980;2022-09-09T15:32:07;0.85;;;0.50;;
52708;SDS011;38606;52.986;6.980;2022-09-09T15:34:33;1.00;;;0.45;;
52708;SDS011;38606;52.986;6.980;2022-09-09T15:36:59;0.80;;;0.40;;
52708;SDS011;38606;52.986;6.980;2022-09-09T15:39:27;1.83;;;0.50;;
52708;SDS011;38606;52.986;6.980;2022-09-09T15:41:53;3.13;;;0.70;;
52708;SDS011;38606;52.986;6.980;2022-09-09T15:44:19;2.33;;;1.13;;
52708;SDS011;38606;52.986;6.980;2022-09-09T15:46:51;2.13;;;1.10;;
52708;SDS011;38606;52.986;6.980;2022-09-09T15:49:25;4.32;;;0.80;;
52708;SDS011;38606;52.986;6.980;2022-09-09T15:51:52;2.92;;;0.60;;
52708;SDS011;38606;52.986;6.980;2022-09-09T15:54:20;1.52;;;0.70;;
52708;SDS011;38606;52.986;6.980;2022-09-09T15:56:56;3.03;;;0.85;;
52708;SDS011;38606;52.986;6.980;2022-09-09T15:59:23;1.88;;;0.70;;
52708;SDS011;38606;52.986;6.980;2022-09-09T16:01:50;3.47;;;0.80;;
52708;SDS011;38606;52.986;6.980;2022-09-09T16:04:17;3.28;;;1.08;;
52708;SDS011;38606;52.986;6.980;2022-09-09T16:06:49;3.13;;;0.93;;
52708;SDS011;38606;52.986;6.980;2022-09-09T16:09:19;3.72;;;1.40;;
52708;SDS011;38606;52.986;6.980;2022-09-09T16:11:45;2.22;;;1.00;;
52708;SDS011;38606;52.986;6.980;2022-09-09T16:14:12;2.03;;;0.90;;
52708;SDS011;38606;52.986;6.980;2022-09-09T16:16:40;2.05;;;1.05;;
52708;SDS011;38606;52.986;6.980;2022-09-09T16:19:07;2.85;;;0.90;;
52708;SDS011;38606;52.986;6.980;2022-09-09T16:21:39;4.60;;;1.13;;
52708;SDS011;38606;52.986;6.980;2022-09-09T16:24:07;2.40;;;0.90;;
52708;SDS011;38606;52.986;6.980;2022-09-09T16:26:35;2.45;;;0.90;;
52708;SDS011;38606;52.986;6.980;2022-09-09T16:29:03;4.80;;;1.17;;
52708;SDS011;38606;52.986;6.980;2022-09-09T16:31:29;3.58;;;1.00;;
52708;SDS011;38606;52.986;6.980;2022-09-09T16:33:57;4.15;;;1.25;;
52708;SDS011;38606;52.986;6.980;2022-09-09T16:36:24;3.60;;;1.20;;
52708;SDS011;38606;52.986;6.980;2022-09-09T16:38:54;2.10;;;0.95;;
52708;SDS011;38606;52.986;6.980;2022-09-09T16:41:22;4.22;;;1.10;;
52708;SDS011;38606;52.986;6.980;2022-09-09T16:44:07;2.80;;;1.10;;
52708;SDS011;38606;52.986;6.980;2022-09-09T16:46:36;3.25;;;1.10;;
52708;SDS011;38606;52.986;6.980;2022-09-09T16:49:07;3.47;;;1.20;;
52708;SDS011;38606;52.986;6.980;2022-09-09T16:51:35;1.95;;;0.95;;
52708;SDS011;38606;52.986;6.980;2022-09-09T16:54:06;6.82;;;1.50;;
52708;SDS011;38606;52.986;6.980;2022-09-09T16:56:34;3.65;;;1.10;;
52708;SDS011;38606;52.986;6.980;2022-09-09T16:59:11;3.75;;;1.50;;
52708;SDS011;38606;52.986;6.980;2022-09-09T17:01:39;5.53;;;1.20;;
52708;SDS011;38606;52.986;6.980;2022-09-09T17:04:13;5.40;;;1.40;;
52708;SDS011;38606;52.986;6.980;2022-09-09T17:06:46;3.78;;;1.27;;
52708;SDS011;38606;52.986;6.980;2022-09-09T17:09:14;4.47;;;1.40;;
52708;SDS011;38606;52.986;6.980;2022-09-09T17:11:40;3.83;;;1.38;;
52708;SDS011;38606;52.986;6.980;2022-09-09T17:14:07;2.67;;;1.33;;
52708;SDS011;38606;52.986;6.980;2022-09-09T17:16:34;3.83;;;1.70;;
52708;SDS011;38606;52.986;6.980;2022-09-09T17:19:01;4.05;;;1.60;;
52708;SDS011;38606;52.986;6.980;2022-09-09T17:21:28;3.58;;;1.73;;
52708;SDS011;38606;52.986;6.980;2022-09-09T17:23:55;4.53;;;1.58;;
52708;SDS011;38606;52.986;6.980;2022-09-09T17:26:22;3.60;;;1.40;;
52708;SDS011;38606;52.986;6.980;2022-09-09T17:28:51;2.70;;;1.40;;
52708;SDS011;38606;52.986;6.980;2022-09-09T17:31:17;3.55;;;1.25;;
52708;SDS011;38606;52.986;6.980;2022-09-09T17:33:45;3.15;;;1.58;;
52708;SDS011;38606;52.986;6.980;2022-09-09T17:36:16;4.35;;;1.30;;
52708;SDS011;38606;52.986;6.980;2022-09-09T17:39:03;5.47;;;1.30;;
52708;SDS011;38606;52.986;6.980;2022-09-09T17:41:31;4.38;;;1.30;;